Time;durP1;ratioP1;P1;durP2;ratioP2;P2;SDS_P1;SDS_P2;PMS_P1;PMS_P2;Temp;Humidity;BMP_temperature;BMP_pressure;BME280_temperature;BME280_humidity;BME280_pressure;Samples;Min_cycle;Max_cycle;Signal;HPM_P1;HPM_P2
2023/05/07 00:00:37;;;;;;;7.57;3.03;;;;;;;;;;5106227;28;20459;-75
2023/05/07 00:03:03;;;;;;;4.80;2.92;;;;;;;;;;5106042;28;20078;-74
2023/05/07 00:05:30;;;;;;;7.65;3.47;;;;;;;;;;5106509;28;20027;-73
2023/05/07 00:07:56;;;;;;;5.90;2.85;;;;;;;;;;5107654;28;20020;-74
2023/05/07 00:10:22;;;;;;;5.40;2.45;;;;;;;;;;5113061;28;20470;-73
2023/05/07 00:12:48;;;;;;;6.82;3.22;;;;;;;;;;5112492;28;20518;-75
2023/05/07 00:15:14;;;;;;;5.28;3.28;;;;;;;;;;5110851;28;20027;-71
2023/05/07 00:17:40;;;;;;;5.60;2.90;;;;;;;;;;5109771;28;20073;-61
2023/05/07 00:20:07;;;;;;;5.40;2.88;;;;;;;;;;5110548;27;20111;-76
2023/05/07 00:22:33;;;;;;;7.57;3.47;;;;;;;;;;5110549;27;20024;-74
2023/05/07 00:24:59;;;;;;;5.78;3.00;;;;;;;;;;5109847;27;20180;-75
2023/05/07 00:27:25;;;;;;;7.18;3.28;;;;;;;;;;5110387;28;20026;-68
2023/05/07 00:29:51;;;;;;;6.10;3.13;;;;;;;;;;5109364;28;20518;-73
2023/05/07 00:32:17;;;;;;;4.10;2.35;;;;;;;;;;5109997;28;20024;-75
2023/05/07 00:34:43;;;;;;;6.20;2.80;;;;;;;;;;5109784;28;20038;-71
2023/05/07 00:37:09;;;;;;;6.68;2.50;;;;;;;;;;5110966;28;20024;-74
2023/05/07 00:39:36;;;;;;;5.63;2.80;;;;;;;;;;5110271;28;20027;-70
2023/05/07 00:42:02;;;;;;;5.07;2.95;;;;;;;;;;5109690;28;20023;-75
2023/05/07 00:44:29;;;;;;;5.85;3.05;;;;;;;;;;5112884;28;20036;-75
2023/05/07 00:46:56;;;;;;;7.15;3.28;;;;;;;;;;5109528;28;20030;-72
2023/05/07 00:49:22;;;;;;;3.97;2.70;;;;;;;;;;5109228;28;20031;-74
2023/05/07 00:51:48;;;;;;;5.90;2.85;;;;;;;;;;5110779;28;20023;-75
2023/05/07 00:54:14;;;;;;;6.55;2.72;;;;;;;;;;5109667;28;20054;-70
2023/05/07 00:56:40;;;;;;;7.03;3.35;;;;;;;;;;5109733;28;20491;-61
2023/05/07 00:59:06;;;;;;;6.22;3.50;;;;;;;;;;5109201;28;20071;-76
2023/05/07 01:01:32;;;;;;;6.30;3.50;;;;;;;;;;5109431;28;20584;-76
2023/05/07 01:03:58;;;;;;;6.55;3.28;;;;;;;;;;5107908;28;20032;-70
2023/05/07 01:06:27;;;;;;;9.30;3.60;;;;;;;;;;5109894;28;20065;-74
2023/05/07 01:08:56;;;;;;;4.70;3.15;;;;;;;;;;5109270;28;20419;-74
2023/05/07 01:11:22;;;;;;;5.20;2.70;;;;;;;;;;5110670;28;20427;-74
2023/05/07 01:13:50;;;;;;;9.80;3.60;;;;;;;;;;5111648;28;20055;-71
2023/05/07 01:16:16;;;;;;;4.57;2.83;;;;;;;;;;5110176;28;20016;-71
2023/05/07 01:18:42;;;;;;;6.47;3.00;;;;;;;;;;5109408;28;20057;-75
2023/05/07 01:21:11;;;;;;;5.60;2.72;;;;;;;;;;5108491;28;20106;-72
2023/05/07 01:23:37;;;;;;;5.00;2.83;;;;;;;;;;5109121;28;20039;-75
2023/05/07 01:26:03;;;;;;;5.50;3.10;;;;;;;;;;5108831;27;20099;-73
2023/05/07 01:28:29;;;;;;;5.43;3.22;;;;;;;;;;5108915;28;20115;-75
2023/05/07 01:30:57;;;;;;;4.00;2.55;;;;;;;;;;5109066;28;20425;-75
2023/05/07 01:33:24;;;;;;;6.13;3.28;;;;;;;;;;5108836;28;20034;-75
2023/05/07 01:35:54;;;;;;;3.92;2.70;;;;;;;;;;5108596;28;20102;-72
2023/05/07 01:38:21;;;;;;;6.50;2.95;;;;;;;;;;5108823;28;20088;-75
2023/05/07 01:40:47;;;;;;;4.53;3.33;;;;;;;;;;5109610;28;20043;-71
2023/05/07 01:43:13;;;;;;;4.88;2.90;;;;;;;;;;5110387;28;20475;-75
2023/05/07 01:45:40;;;;;;;5.45;3.13;;;;;;;;;;5110866;28;20062;-74
2023/05/07 01:48:07;;;;;;;6.53;3.10;;;;;;;;;;5108951;28;20028;-74
2023/05/07 01:50:33;;;;;;;7.20;3.38;;;;;;;;;;5110063;28;20019;-72
2023/05/07 01:52:59;;;;;;;4.80;2.92;;;;;;;;;;5108211;28;20506;-72
2023/05/07 01:55:25;;;;;;;5.88;2.83;;;;;;;;;;5109029;28;20024;-75
2023/05/07 01:57:51;;;;;;;4.88;2.72;;;;;;;;;;5108318;28;20031;-75
2023/05/07 02:00:18;;;;;;;4.90;2.75;;;;;;;;;;5108641;28;20035;-74
2023/05/07 02:02:44;;;;;;;5.40;2.80;;;;;;;;;;5108165;28;20076;-70
2023/05/07 02:05:10;;;;;;;5.93;2.75;;;;;;;;;;5108647;28;20487;-70
2023/05/07 02:07:36;;;;;;;4.32;2.53;;;;;;;;;;5109406;28;20053;-70
2023/05/07 02:10:03;;;;;;;4.55;2.78;;;;;;;;;;5110563;28;20104;-63
2023/05/07 02:12:29;;;;;;;4.80;2.58;;;;;;;;;;5110075;28;20023;-71
2023/05/07 02:14:55;;;;;;;3.95;2.28;;;;;;;;;;5109263;28;20448;-75
2023/05/07 02:17:21;;;;;;;4.30;2.47;;;;;;;;;;5108511;28;20081;-71
2023/05/07 02:19:47;;;;;;;4.22;2.88;;;;;;;;;;5108060;28;20024;-74
2023/05/07 02:22:13;;;;;;;3.05;2.25;;;;;;;;;;5107688;28;20035;-73
2023/05/07 02:24:39;;;;;;;4.22;2.40;;;;;;;;;;5108366;28;20173;-68
2023/05/07 02:27:05;;;;;;;3.83;2.50;;;;;;;;;;5107379;28;20030;-69
2023/05/07 02:29:31;;;;;;;6.55;3.38;;;;;;;;;;5107986;28;20023;-73
2023/05/07 02:31:57;;;;;;;5.57;2.47;;;;;;;;;;5107453;28;20032;-73
2023/05/07 02:34:23;;;;;;;3.63;2.42;;;;;;;;;;5108129;28;20030;-73
2023/05/07 02:36:49;;;;;;;4.85;2.50;;;;;;;;;;5109537;28;20100;-75
2023/05/07 02:39:15;;;;;;;5.47;2.50;;;;;;;;;;5112004;28;20047;-74
2023/05/07 02:41:41;;;;;;;5.22;2.78;;;;;;;;;;5112059;28;20392;-72
2023/05/07 02:44:07;;;;;;;3.63;2.42;;;;;;;;;;5111767;28;20110;-74
2023/05/07 02:46:33;;;;;;;4.75;2.38;;;;;;;;;;5107430;28;20053;-66
2023/05/07 02:48:59;;;;;;;7.28;2.78;;;;;;;;;;5110156;28;20606;-74
2023/05/07 02:51:27;;;;;;;4.90;2.50;;;;;;;;;;5107505;28;21414;-74
2023/05/07 02:53:53;;;;;;;5.25;2.35;;;;;;;;;;5107257;28;20043;-72
2023/05/07 02:56:19;;;;;;;4.28;2.75;;;;;;;;;;5110503;28;20075;-73
2023/05/07 02:58:45;;;;;;;4.65;3.08;;;;;;;;;;5107774;28;20452;-75
2023/05/07 03:01:13;;;;;;;5.43;2.65;;;;;;;;;;5107490;28;20047;-74
2023/05/07 03:03:39;;;;;;;3.53;2.72;;;;;;;;;;5110476;28;20030;-67
2023/05/07 03:06:06;;;;;;;4.80;2.70;;;;;;;;;;5107551;28;20019;-73
2023/05/07 03:08:32;;;;;;;3.33;2.15;;;;;;;;;;5106471;28;20019;-72
2023/05/07 03:10:58;;;;;;;4.20;2.45;;;;;;;;;;5111131;28;20035;-74
2023/05/07 03:13:24;;;;;;;4.03;2.50;;;;;;;;;;5107579;28;20062;-75
2023/05/07 03:15:50;;;;;;;4.90;2.70;;;;;;;;;;5107300;28;20024;-68
2023/05/07 03:18:16;;;;;;;3.88;2.58;;;;;;;;;;5109109;28;20277;-75
2023/05/07 03:20:42;;;;;;;4.05;2.50;;;;;;;;;;5106484;28;20032;-73
2023/05/07 03:23:08;;;;;;;5.88;2.50;;;;;;;;;;5108562;28;20024;-72
2023/05/07 03:25:35;;;;;;;3.80;2.30;;;;;;;;;;5108749;28;20051;-71
2023/05/07 03:28:01;;;;;;;4.43;2.42;;;;;;;;;;5106473;28;20028;-73
2023/05/07 03:30:27;;;;;;;4.90;2.35;;;;;;;;;;5108695;28;20042;-67
2023/05/07 03:32:53;;;;;;;4.85;3.13;;;;;;;;;;5108452;28;20028;-72
2023/05/07 03:35:19;;;;;;;5.15;3.13;;;;;;;;;;5108631;28;20036;-69
2023/05/07 03:37:44;;;;;;;6.75;2.30;;;;;;;;;;5106378;28;20422;-72
2023/05/07 03:40:12;;;;;;;5.35;2.70;;;;;;;;;;5107562;28;20103;-65
2023/05/07 03:42:38;;;;;;;4.82;2.85;;;;;;;;;;5107132;28;20050;-70
2023/05/07 03:45:04;;;;;;;4.53;2.50;;;;;;;;;;5112970;28;20513;-70
2023/05/07 03:47:30;;;;;;;8.15;3.10;;;;;;;;;;5114053;27;20098;-71
2023/05/07 03:49:56;;;;;;;4.15;2.80;;;;;;;;;;5115962;27;20058;-72
2023/05/07 03:52:25;;;;;;;5.30;2.92;;;;;;;;;;5114388;27;20020;-67
2023/05/07 03:54:51;;;;;;;4.93;2.53;;;;;;;;;;5113313;27;20144;-73
2023/05/07 03:57:17;;;;;;;7.00;2.65;;;;;;;;;;5113653;27;20024;-67
2023/05/07 03:59:43;;;;;;;5.20;2.45;;;;;;;;;;5113153;27;20048;-72
2023/05/07 04:02:09;;;;;;;5.45;3.20;;;;;;;;;;5114100;28;20020;-69
2023/05/07 04:04:35;;;;;;;6.18;3.72;;;;;;;;;;5114782;28;20410;-72
2023/05/07 04:07:01;;;;;;;5.88;2.75;;;;;;;;;;5114745;27;20472;-70
2023/05/07 04:09:27;;;;;;;4.45;2.50;;;;;;;;;;5116348;27;20028;-73
2023/05/07 04:11:53;;;;;;;4.65;2.80;;;;;;;;;;5114461;27;20027;-70
2023/05/07 04:14:19;;;;;;;4.53;3.15;;;;;;;;;;5113809;27;20520;-62
2023/05/07 04:16:45;;;;;;;4.13;2.42;;;;;;;;;;5113668;27;20016;-73
2023/05/07 04:19:11;;;;;;;6.03;2.88;;;;;;;;;;5114891;27;20164;-73
2023/05/07 04:21:37;;;;;;;4.90;2.65;;;;;;;;;;5114834;27;20483;-69
2023/05/07 04:24:06;;;;;;;7.57;2.40;;;;;;;;;;5113520;27;20031;-71
2023/05/07 04:26:32;;;;;;;6.60;3.25;;;;;;;;;;5113239;27;20024;-72
2023/05/07 04:28:59;;;;;;;4.53;2.42;;;;;;;;;;5114012;27;20034;-67
2023/05/07 04:31:26;;;;;;;5.82;3.30;;;;;;;;;;5113036;28;20039;-59
2023/05/07 04:33:52;;;;;;;4.40;2.80;;;;;;;;;;5113542;27;20024;-62
2023/05/07 04:36:18;;;;;;;4.90;2.70;;;;;;;;;;5112858;27;20499;-71
2023/05/07 04:38:45;;;;;;;6.85;3.03;;;;;;;;;;5112629;28;20126;-57
2023/05/07 04:41:13;;;;;;;4.30;2.70;;;;;;;;;;5113298;27;20394;-69
2023/05/07 04:43:39;;;;;;;4.13;2.40;;;;;;;;;;5115546;27;20051;-64
2023/05/07 04:46:05;;;;;;;5.30;3.13;;;;;;;;;;5114445;28;20026;-69
2023/05/07 04:48:31;;;;;;;6.15;3.15;;;;;;;;;;5112515;28;20027;-67
2023/05/07 04:50:57;;;;;;;4.07;2.08;;;;;;;;;;5113016;27;20399;-60
2023/05/07 04:53:23;;;;;;;5.53;2.95;;;;;;;;;;5112718;27;20039;-72
2023/05/07 04:55:50;;;;;;;5.90;3.20;;;;;;;;;;5109573;27;20069;-71
2023/05/07 04:58:16;;;;;;;5.78;3.20;;;;;;;;;;5109865;28;20042;-67
2023/05/07 05:00:42;;;;;;;5.82;2.70;;;;;;;;;;5109470;28;20091;-72
2023/05/07 05:03:08;;;;;;;5.13;2.75;;;;;;;;;;5110398;28;20432;-70
2023/05/07 05:05:34;;;;;;;5.72;3.00;;;;;;;;;;5109963;28;20027;-71
2023/05/07 05:08:00;;;;;;;5.13;2.75;;;;;;;;;;5109512;28;20363;-66
2023/05/07 05:10:26;;;;;;;4.95;2.97;;;;;;;;;;5111564;28;20422;-61
2023/05/07 05:12:52;;;;;;;4.45;2.90;;;;;;;;;;5110540;28;20039;-72
2023/05/07 05:15:18;;;;;;;4.28;2.60;;;;;;;;;;5110913;28;20019;-63
2023/05/07 05:17:44;;;;;;;5.38;3.50;;;;;;;;;;5110178;28;20038;-65
2023/05/07 05:20:11;;;;;;;5.50;2.80;;;;;;;;;;5109504;28;20027;-64
2023/05/07 05:22:37;;;;;;;5.10;3.22;;;;;;;;;;5111343;28;20512;-67
2023/05/07 05:25:03;;;;;;;5.30;3.28;;;;;;;;;;5113179;28;20032;-66
2023/05/07 05:27:29;;;;;;;5.60;3.25;;;;;;;;;;5113434;28;20023;-71
2023/05/07 05:29:55;;;;;;;5.15;2.88;;;;;;;;;;5113639;28;20382;-71
2023/05/07 05:32:21;;;;;;;6.38;3.53;;;;;;;;;;5113575;28;20099;-60
2023/05/07 05:34:48;;;;;;;5.40;3.00;;;;;;;;;;5113414;28;20145;-67
2023/05/07 05:37:14;;;;;;;5.35;2.95;;;;;;;;;;5113551;28;20041;-63
2023/05/07 05:39:40;;;;;;;4.20;2.92;;;;;;;;;;5113697;28;20462;-66
2023/05/07 05:42:06;;;;;;;5.57;3.15;;;;;;;;;;5113632;28;20456;-72
2023/05/07 05:44:32;;;;;;;4.70;2.88;;;;;;;;;;5113333;28;20076;-58
2023/05/07 05:46:59;;;;;;;6.63;3.47;;;;;;;;;;5113020;28;20077;-57
2023/05/07 05:49:25;;;;;;;4.90;3.20;;;;;;;;;;5112916;28;20062;-59
2023/05/07 05:51:51;;;;;;;5.32;3.25;;;;;;;;;;5112844;28;20024;-70
2023/05/07 05:54:17;;;;;;;5.43;3.15;;;;;;;;;;5110338;28;20542;-68
2023/05/07 05:56:43;;;;;;;5.72;2.67;;;;;;;;;;5109401;28;20044;-59
2023/05/07 05:59:09;;;;;;;6.80;3.33;;;;;;;;;;5109569;27;20043;-66
2023/05/07 06:01:35;;;;;;;4.75;3.72;;;;;;;;;;5109208;27;20063;-64
2023/05/07 06:04:01;;;;;;;7.20;3.45;;;;;;;;;;5109668;28;20074;-59
2023/05/07 06:06:28;;;;;;;5.43;3.17;;;;;;;;;;5110091;28;20049;-68
2023/05/07 06:08:53;;;;;;;4.95;3.40;;;;;;;;;;5108331;28;20493;-58
2023/05/07 06:11:20;;;;;;;6.72;4.03;;;;;;;;;;5111264;28;20098;-70
2023/05/07 06:13:46;;;;;;;5.80;3.17;;;;;;;;;;5110939;28;20069;-69
2023/05/07 06:16:12;;;;;;;7.07;3.67;;;;;;;;;;5109853;28;20023;-69
2023/05/07 06:18:38;;;;;;;5.88;3.40;;;;;;;;;;5109461;28;20536;-71
2023/05/07 06:21:04;;;;;;;6.75;3.17;;;;;;;;;;5109084;28;20084;-66
2023/05/07 06:23:30;;;;;;;7.32;2.88;;;;;;;;;;5109295;28;20216;-67
2023/05/07 06:25:55;;;;;;;6.18;2.90;;;;;;;;;;5108556;28;20036;-71
2023/05/07 06:28:21;;;;;;;4.60;3.00;;;;;;;;;;5109690;28;20030;-71
2023/05/07 06:30:49;;;;;;;4.47;3.13;;;;;;;;;;5108088;28;20114;-73
2023/05/07 06:33:15;;;;;;;6.07;3.72;;;;;;;;;;5108176;28;20027;-72
2023/05/07 06:35:41;;;;;;;6.05;3.80;;;;;;;;;;5109555;28;20412;-70
2023/05/07 06:38:07;;;;;;;8.02;3.50;;;;;;;;;;5108330;28;20042;-57
2023/05/07 06:40:33;;;;;;;8.35;3.20;;;;;;;;;;5107657;28;20035;-68
2023/05/07 06:42:59;;;;;;;9.85;4.15;;;;;;;;;;5109497;28;20015;-66
2023/05/07 06:45:25;;;;;;;8.57;3.30;;;;;;;;;;5109386;28;20065;-68
2023/05/07 06:47:51;;;;;;;9.32;3.60;;;;;;;;;;5108039;28;20016;-69
2023/05/07 06:50:17;;;;;;;7.28;3.15;;;;;;;;;;5107849;28;20092;-63
2023/05/07 06:52:43;;;;;;;6.25;3.45;;;;;;;;;;5108292;28;20023;-58
2023/05/07 06:55:10;;;;;;;6.38;3.67;;;;;;;;;;5108492;28;20046;-65
2023/05/07 06:57:36;;;;;;;7.18;3.83;;;;;;;;;;5107882;28;20119;-71
2023/05/07 07:00:03;;;;;;;11.77;3.35;;;;;;;;;;5108958;28;20114;-58
2023/05/07 07:02:29;;;;;;;6.80;3.72;;;;;;;;;;5107860;28;20042;-70
2023/05/07 07:04:55;;;;;;;12.27;3.05;;;;;;;;;;5107474;28;20023;-64
2023/05/07 07:07:20;;;;;;;7.22;3.55;;;;;;;;;;5106736;28;20403;-61
2023/05/07 07:09:46;;;;;;;7.10;3.78;;;;;;;;;;5111280;28;20115;-69
2023/05/07 07:12:12;;;;;;;10.20;4.53;;;;;;;;;;5112083;28;20019;-63
2023/05/07 07:14:38;;;;;;;7.50;3.95;;;;;;;;;;5112185;27;20046;-60
2023/05/07 07:17:05;;;;;;;7.45;3.85;;;;;;;;;;5111754;28;20098;-57
2023/05/07 07:19:31;;;;;;;10.75;3.72;;;;;;;;;;5111064;28;20448;-66
2023/05/07 07:21:57;;;;;;;9.20;4.07;;;;;;;;;;5111679;28;20039;-70
2023/05/07 07:24:23;;;;;;;6.57;4.00;;;;;;;;;;5111480;28;20019;-70
2023/05/07 07:26:49;;;;;;;6.65;3.38;;;;;;;;;;5110618;28;20072;-66
2023/05/07 07:29:15;;;;;;;12.30;3.47;;;;;;;;;;5111798;28;20024;-67
2023/05/07 07:31:41;;;;;;;8.35;4.32;;;;;;;;;;5111530;28;20055;-63
2023/05/07 07:34:06;;;;;;;10.68;3.95;;;;;;;;;;5111885;28;20034;-64
2023/05/07 07:36:32;;;;;;;6.40;3.95;;;;;;;;;;5111083;28;20047;-66
2023/05/07 07:38:58;;;;;;;8.52;4.10;;;;;;;;;;5110242;28;20080;-67
2023/05/07 07:41:25;;;;;;;11.32;4.35;;;;;;;;;;5111173;28;20043;-56
2023/05/07 07:43:51;;;;;;;6.00;3.10;;;;;;;;;;5111178;28;20019;-67
2023/05/07 07:46:17;;;;;;;6.10;3.95;;;;;;;;;;5111145;28;20490;-58
2023/05/07 07:48:43;;;;;;;7.50;4.05;;;;;;;;;;5111378;28;20035;-66
2023/05/07 07:51:09;;;;;;;6.82;3.25;;;;;;;;;;5111815;28;20085;-67
2023/05/07 07:53:35;;;;;;;5.53;3.58;;;;;;;;;;5110951;28;20028;-63
2023/05/07 07:56:01;;;;;;;6.68;3.70;;;;;;;;;;5111212;28;20035;-65
2023/05/07 07:58:27;;;;;;;6.63;3.90;;;;;;;;;;5111361;28;20077;-64
2023/05/07 08:00:55;;;;;;;6.15;3.50;;;;;;;;;;5110419;28;20467;-60
2023/05/07 08:03:21;;;;;;;6.63;3.95;;;;;;;;;;5110794;28;20024;-65
2023/05/07 08:05:49;;;;;;;8.38;4.03;;;;;;;;;;5111223;28;20077;-67
2023/05/07 08:08:15;;;;;;;6.78;3.97;;;;;;;;;;5111482;28;20058;-66
2023/05/07 08:10:41;;;;;;;8.13;4.32;;;;;;;;;;5111195;28;20024;-66
2023/05/07 08:13:07;;;;;;;7.45;4.22;;;;;;;;;;5111674;28;20396;-62
2023/05/07 08:15:33;;;;;;;6.95;4.43;;;;;;;;;;5111335;28;20020;-66
2023/05/07 08:18:02;;;;;;;8.05;4.32;;;;;;;;;;5110363;28;20130;-63
2023/05/07 08:20:29;;;;;;;7.47;4.35;;;;;;;;;;5109404;28;20044;-59
2023/05/07 08:22:55;;;;;;;8.50;4.60;;;;;;;;;;5110643;28;20107;-64
2023/05/07 08:25:21;;;;;;;10.00;4.28;;;;;;;;;;5111319;28;20055;-55
2023/05/07 08:27:47;;;;;;;9.13;4.82;;;;;;;;;;5109761;28;20030;-61
2023/05/07 08:30:13;;;;;;;8.95;5.43;;;;;;;;;;5112842;28;20433;-64
2023/05/07 08:32:39;;;;;;;6.22;4.22;;;;;;;;;;5115397;28;20097;-66
2023/05/07 08:35:05;;;;;;;10.40;4.70;;;;;;;;;;5114641;28;20111;-65
2023/05/07 08:37:31;;;;;;;7.63;3.72;;;;;;;;;;5114859;28;20024;-59
2023/05/07 08:39:57;;;;;;;6.53;4.00;;;;;;;;;;5114597;27;20115;-62
2023/05/07 08:42:27;;;;;;;7.22;4.80;;;;;;;;;;5114333;28;20475;-60
2023/05/07 08:44:56;;;;;;;7.28;4.45;;;;;;;;;;5114420;28;20031;-57
2023/05/07 08:47:23;;;;;;;8.30;4.85;;;;;;;;;;5113744;28;20023;-63
2023/05/07 08:49:50;;;;;;;6.75;4.32;;;;;;;;;;5114606;28;20036;-56
2023/05/07 08:52:16;;;;;;;7.78;4.35;;;;;;;;;;5114506;28;20020;-61
2023/05/07 08:54:42;;;;;;;9.63;4.57;;;;;;;;;;5114015;28;20027;-63
2023/05/07 08:57:08;;;;;;;8.48;4.93;;;;;;;;;;5114829;28;20082;-58
2023/05/07 08:59:35;;;;;;;7.43;4.50;;;;;;;;;;5114539;28;20071;-62
2023/05/07 09:02:01;;;;;;;9.45;4.90;;;;;;;;;;5113518;28;20020;-65
2023/05/07 09:04:27;;;;;;;8.18;4.40;;;;;;;;;;5114658;28;20031;-66
2023/05/07 09:06:53;;;;;;;8.82;4.57;;;;;;;;;;5114212;28;20023;-61
2023/05/07 09:09:19;;;;;;;7.32;4.20;;;;;;;;;;5113006;28;20027;-60
2023/05/07 09:11:45;;;;;;;7.40;4.32;;;;;;;;;;5114131;28;20518;-69
2023/05/07 09:14:11;;;;;;;9.38;4.78;;;;;;;;;;5113819;28;20099;-61
2023/05/07 09:16:37;;;;;;;8.70;5.10;;;;;;;;;;5113553;28;20398;-66
2023/05/07 09:19:04;;;;;;;7.38;3.85;;;;;;;;;;5113926;28;20440;-65
2023/05/07 09:21:30;;;;;;;9.02;3.47;;;;;;;;;;5113921;28;20129;-68
2023/05/07 09:23:56;;;;;;;9.35;4.82;;;;;;;;;;5113902;28;20471;-60
2023/05/07 09:26:22;;;;;;;8.13;4.68;;;;;;;;;;5113916;28;20028;-68
2023/05/07 09:28:48;;;;;;;12.55;5.47;;;;;;;;;;5113090;28;20039;-60
2023/05/07 09:31:14;;;;;;;9.13;4.90;;;;;;;;;;5113645;28;20024;-67
2023/05/07 09:33:40;;;;;;;10.10;4.22;;;;;;;;;;5113773;28;20032;-59
2023/05/07 09:36:08;;;;;;;11.95;4.70;;;;;;;;;;5114065;28;20030;-68
2023/05/07 09:38:34;;;;;;;11.50;3.55;;;;;;;;;;5113821;27;20031;-66
2023/05/07 09:41:03;;;;;;;9.30;4.55;;;;;;;;;;5113106;28;20096;-68
2023/05/07 09:43:33;;;;;;;8.55;4.78;;;;;;;;;;5113053;28;20535;-58
2023/05/07 09:46:01;;;;;;;10.65;5.60;;;;;;;;;;5113448;28;20039;-58
2023/05/07 09:48:27;;;;;;;9.63;5.15;;;;;;;;;;5113649;27;20566;-67
2023/05/07 09:50:58;;;;;;;8.55;4.50;;;;;;;;;;5113382;28;20059;-58
2023/05/07 09:53:24;;;;;;;9.50;5.55;;;;;;;;;;5113588;28;20023;-68
2023/05/07 09:55:51;;;;;;;14.05;5.45;;;;;;;;;;5113312;28;20487;-67
2023/05/07 09:58:18;;;;;;;6.85;4.28;;;;;;;;;;5113303;28;20031;-64
2023/05/07 10:00:44;;;;;;;12.15;4.97;;;;;;;;;;5113146;28;20019;-67
2023/05/07 10:03:11;;;;;;;9.40;5.05;;;;;;;;;;5113318;28;20103;-58
2023/05/07 10:05:37;;;;;;;10.70;4.93;;;;;;;;;;5113563;28;20506;-67
2023/05/07 10:08:04;;;;;;;7.53;3.58;;;;;;;;;;5113026;28;20036;-61
2023/05/07 10:10:31;;;;;;;8.88;4.07;;;;;;;;;;5113164;28;20411;-59
2023/05/07 10:12:57;;;;;;;9.10;4.80;;;;;;;;;;5112801;28;20031;-62
2023/05/07 10:15:24;;;;;;;9.57;5.07;;;;;;;;;;5113166;28;20027;-68
2023/05/07 10:17:52;;;;;;;6.25;4.78;;;;;;;;;;5112771;28;20024;-59
2023/05/07 10:20:18;;;;;;;6.70;4.93;;;;;;;;;;5112899;28;20046;-67
2023/05/07 10:22:45;;;;;;;10.77;3.80;;;;;;;;;;5112701;28;20479;-57
2023/05/07 10:25:19;;;;;;;7.07;4.30;;;;;;;;;;5112799;28;20421;-68
2023/05/07 10:27:47;;;;;;;7.57;4.97;;;;;;;;;;5112751;28;20103;-59
2023/05/07 10:30:21;;;;;;;6.32;3.25;;;;;;;;;;5112753;28;20054;-64
2023/05/07 10:32:50;;;;;;;7.32;4.75;;;;;;;;;;5112464;28;20024;-59
2023/05/07 10:35:23;;;;;;;8.02;5.10;;;;;;;;;;5112642;27;20019;-68
2023/05/07 10:37:49;;;;;;;11.75;4.80;;;;;;;;;;5112351;28;20067;-64
2023/05/07 10:40:17;;;;;;;8.20;5.15;;;;;;;;;;5112683;28;20080;-57
2023/05/07 10:42:56;;;;;;;6.72;4.07;;;;;;;;;;5112199;27;20506;-64
2023/05/07 10:45:23;;;;;;;5.22;3.28;;;;;;;;;;5112555;28;20475;-67
2023/05/07 10:48:15;;;;;;;6.82;4.30;;;;;;;;;;5112200;27;20484;-63
2023/05/07 10:50:42;;;;;;;9.10;3.78;;;;;;;;;;5109443;28;20114;-68
2023/05/07 10:53:17;;;;;;;7.38;3.40;;;;;;;;;;5111841;28;20024;-68
2023/05/07 10:55:43;;;;;;;6.50;4.43;;;;;;;;;;5112118;28;20023;-68
2023/05/07 10:58:21;;;;;;;5.45;3.55;;;;;;;;;;5112568;28;20071;-68
2023/05/07 11:00:48;;;;;;;5.45;3.15;;;;;;;;;;5111928;28;20015;-69
2023/05/07 11:03:14;;;;;;;5.85;4.00;;;;;;;;;;5112163;28;20038;-63
2023/05/07 11:05:41;;;;;;;5.00;4.10;;;;;;;;;;5112008;28;20476;-56
2023/05/07 11:08:07;;;;;;;5.32;3.03;;;;;;;;;;5112418;28;20020;-68
2023/05/07 11:10:52;;;;;;;6.70;3.58;;;;;;;;;;5112076;28;20313;-58
2023/05/07 11:13:19;;;;;;;4.25;3.25;;;;;;;;;;5111887;28;20020;-67
2023/05/07 11:15:48;;;;;;;5.90;4.00;;;;;;;;;;5111596;28;20454;-68
2023/05/07 11:18:15;;;;;;;7.88;4.50;;;;;;;;;;5111873;28;20019;-68
2023/05/07 11:20:52;;;;;;;6.90;4.55;;;;;;;;;;5111566;28;20031;-56
2023/05/07 11:23:37;;;;;;;5.80;4.22;;;;;;;;;;5111849;28;20027;-58
2023/05/07 11:26:04;;;;;;;8.65;5.43;;;;;;;;;;5111597;28;20027;-65
2023/05/07 11:28:30;;;;;;;7.53;6.00;;;;;;;;;;5111696;28;20035;-68
2023/05/07 11:30:57;;;;;;;5.65;3.97;;;;;;;;;;5111634;28;20019;-68
2023/05/07 11:33:25;;;;;;;5.60;4.80;;;;;;;;;;5111767;28;20020;-64
2023/05/07 11:35:51;;;;;;;6.60;5.57;;;;;;;;;;5111520;28;20028;-56
2023/05/07 11:38:17;;;;;;;6.38;4.65;;;;;;;;;;5111641;28;20046;-69
2023/05/07 11:40:53;;;;;;;6.45;5.43;;;;;;;;;;5111504;28;20099;-68
2023/05/07 11:43:19;;;;;;;5.82;4.65;;;;;;;;;;5111647;28;20065;-69
2023/05/07 11:45:49;;;;;;;6.47;4.30;;;;;;;;;;5111399;28;20016;-68
2023/05/07 11:48:15;;;;;;;6.25;4.93;;;;;;;;;;5111517;28;20031;-57
2023/05/07 11:50:52;;;;;;;4.93;3.80;;;;;;;;;;5111284;28;20024;-65
2023/05/07 11:53:18;;;;;;;4.55;3.80;;;;;;;;;;5111451;28;20027;-60
2023/05/07 11:55:44;;;;;;;6.53;5.20;;;;;;;;;;5111348;28;20019;-60
2023/05/07 11:58:11;;;;;;;5.47;4.18;;;;;;;;;;5111415;28;20031;-66
2023/05/07 12:00:37;;;;;;;6.55;5.03;;;;;;;;;;5111829;28;20019;-69
2023/05/07 12:03:06;;;;;;;5.40;4.90;;;;;;;;;;5111171;28;20019;-69
2023/05/07 12:05:32;;;;;;;5.50;4.75;;;;;;;;;;5113654;28;20024;-68
2023/05/07 12:07:58;;;;;;;6.65;4.85;;;;;;;;;;5115333;28;20035;-58
2023/05/07 12:10:24;;;;;;;6.65;4.85;;;;;;;;;;5115559;28;20024;-59
2023/05/07 12:12:50;;;;;;;8.38;7.15;;;;;;;;;;5115122;28;20114;-65
2023/05/07 12:15:17;;;;;;;7.93;6.45;;;;;;;;;;5115498;28;20054;-69
2023/05/07 12:17:43;;;;;;;6.72;6.03;;;;;;;;;;5115072;28;20035;-57
2023/05/07 12:20:10;;;;;;;10.77;6.15;;;;;;;;;;5115552;28;20475;-56
2023/05/07 12:22:36;;;;;;;6.75;6.05;;;;;;;;;;5115561;28;20479;-69
2023/05/07 12:25:02;;;;;;;7.25;5.95;;;;;;;;;;5115007;28;20016;-69
2023/05/07 12:27:28;;;;;;;6.15;4.70;;;;;;;;;;5114999;27;20035;-66
2023/05/07 12:29:54;;;;;;;7.75;6.65;;;;;;;;;;5114938;28;20535;-67
2023/05/07 12:32:21;;;;;;;7.80;6.88;;;;;;;;;;5115145;28;20494;-68
2023/05/07 12:34:50;;;;;;;9.13;6.18;;;;;;;;;;5114912;28;20383;-68
2023/05/07 12:37:16;;;;;;;7.60;6.35;;;;;;;;;;5115042;28;20028;-69
2023/05/07 12:39:47;;;;;;;6.85;5.68;;;;;;;;;;5114729;28;20506;-69
2023/05/07 12:42:17;;;;;;;7.13;6.25;;;;;;;;;;5114992;28;20032;-57
2023/05/07 12:44:46;;;;;;;7.20;6.22;;;;;;;;;;5114602;28;20508;-69
2023/05/07 12:47:12;;;;;;;7.97;6.25;;;;;;;;;;5114844;28;20024;-69
2023/05/07 12:49:39;;;;;;;8.27;6.45;;;;;;;;;;5114975;28;20031;-65
2023/05/07 12:52:06;;;;;;;6.72;6.03;;;;;;;;;;5115032;28;20024;-69
2023/05/07 12:54:32;;;;;;;7.05;6.35;;;;;;;;;;5114611;28;20023;-69
2023/05/07 12:57:03;;;;;;;7.65;6.53;;;;;;;;;;5113171;28;20450;-69
2023/05/07 12:59:33;;;;;;;7.93;6.22;;;;;;;;;;5114391;28;20039;-64
2023/05/07 13:01:59;;;;;;;7.50;6.53;;;;;;;;;;5114291;28;20055;-69
2023/05/07 13:04:25;;;;;;;6.82;5.35;;;;;;;;;;5114673;28;20050;-68
2023/05/07 13:06:51;;;;;;;7.75;6.68;;;;;;;;;;5114210;28;20020;-58
2023/05/07 13:09:17;;;;;;;6.72;6.03;;;;;;;;;;5114440;28;20019;-69
2023/05/07 13:11:43;;;;;;;8.05;6.03;;;;;;;;;;5114506;28;20038;-68
2023/05/07 13:14:09;;;;;;;6.80;5.93;;;;;;;;;;5114562;28;20024;-66
2023/05/07 13:16:35;;;;;;;7.28;6.32;;;;;;;;;;5113396;28;20379;-60
2023/05/07 13:19:01;;;;;;;9.40;6.50;;;;;;;;;;5113878;28;20039;-70
2023/05/07 13:21:27;;;;;;;6.97;5.95;;;;;;;;;;5114080;27;20143;-70
2023/05/07 13:23:53;;;;;;;6.80;6.05;;;;;;;;;;5113924;27;20112;-69
2023/05/07 13:26:20;;;;;;;7.70;6.90;;;;;;;;;;5114120;27;20080;-69
2023/05/07 13:28:46;;;;;;;5.65;4.85;;;;;;;;;;5113507;28;20487;-69
2023/05/07 13:31:12;;;;;;;6.93;6.22;;;;;;;;;;5113990;28;20090;-70
2023/05/07 13:33:38;;;;;;;5.95;5.10;;;;;;;;;;5114191;27;20089;-69
2023/05/07 13:36:05;;;;;;;7.07;6.32;;;;;;;;;;5113648;28;20027;-69
2023/05/07 13:38:31;;;;;;;7.28;5.65;;;;;;;;;;5113759;28;20031;-59
2023/05/07 13:40:58;;;;;;;7.13;5.60;;;;;;;;;;5113412;28;20043;-59
2023/05/07 13:43:25;;;;;;;7.32;6.57;;;;;;;;;;5113649;28;20065;-68
2023/05/07 13:45:51;;;;;;;6.80;5.85;;;;;;;;;;5113422;28;20028;-69
2023/05/07 13:48:17;;;;;;;6.97;5.60;;;;;;;;;;5113500;28;20038;-69
2023/05/07 13:50:43;;;;;;;5.65;4.30;;;;;;;;;;5113359;28;20072;-69
2023/05/07 13:53:09;;;;;;;6.00;5.05;;;;;;;;;;5113787;28;20028;-63
2023/05/07 13:55:35;;;;;;;3.80;3.13;;;;;;;;;;5113446;28;20020;-61
2023/05/07 13:58:02;;;;;;;5.20;3.78;;;;;;;;;;5113017;28;20038;-68
2023/05/07 14:00:29;;;;;;;4.70;3.17;;;;;;;;;;5113384;28;20031;-69
2023/05/07 14:02:55;;;;;;;4.50;3.38;;;;;;;;;;5113067;28;20497;-65
2023/05/07 14:05:23;;;;;;;3.53;3.05;;;;;;;;;;5113030;27;20053;-69
2023/05/07 14:07:51;;;;;;;5.07;3.67;;;;;;;;;;5112848;28;20088;-68
2023/05/07 14:10:17;;;;;;;4.78;3.10;;;;;;;;;;5112901;28;20387;-60
2023/05/07 14:12:44;;;;;;;4.90;3.70;;;;;;;;;;5112930;28;20028;-69
2023/05/07 14:15:10;;;;;;;6.25;3.70;;;;;;;;;;5113157;28;20128;-62
2023/05/07 14:17:36;;;;;;;5.80;4.50;;;;;;;;;;5113090;28;20023;-59
2023/05/07 14:20:03;;;;;;;4.43;3.30;;;;;;;;;;5112648;28;20035;-60
2023/05/07 14:22:29;;;;;;;4.28;3.50;;;;;;;;;;5113041;28;20062;-70
2023/05/07 14:24:55;;;;;;;4.68;3.53;;;;;;;;;;5112616;28;20024;-67
2023/05/07 14:27:21;;;;;;;4.05;3.10;;;;;;;;;;5112729;28;20024;-67
2023/05/07 14:29:50;;;;;;;3.30;2.85;;;;;;;;;;5112580;28;20372;-69
2023/05/07 14:32:17;;;;;;;4.55;3.15;;;;;;;;;;5112824;28;20027;-70
2023/05/07 14:34:43;;;;;;;3.50;3.08;;;;;;;;;;5112476;28;20122;-62
2023/05/07 14:37:09;;;;;;;4.68;3.15;;;;;;;;;;5113018;28;20028;-66
2023/05/07 14:39:35;;;;;;;3.38;2.95;;;;;;;;;;5112659;28;20036;-60